Time;durP1;ratioP1;P1;durP2;ratioP2;P2;SDS_P1;SDS_P2;PMS_P1;PMS_P2;Temp;Humidity;BMP_temperature;BMP_pressure;BME280_temperature;BME280_humidity;BME280_pressure;Samples;Min_cycle;Max_cycle;Signal;HPM_P1;HPM_P2
2022/04/06 00:01:35;;;;;;;13.23;10.25;;;;;;;;;;5077541;28;20512;-67
2022/04/06 00:04:03;;;;;;;10.65;8.57;;;;;;;;;;5077099;28;20209;-67
2022/04/06 00:06:30;;;;;;;9.95;8.52;;;;;;;;;;5077574;28;20224;-67
2022/04/06 00:08:57;;;;;;;10.85;9.40;;;;;;;;;;5076619;28;20304;-67
2022/04/06 00:11:23;;;;;;;8.68;7.63;;;;;;;;;;5076033;28;20197;-67
2022/04/06 00:13:50;;;;;;;10.98;8.48;;;;;;;;;;5077047;28;20189;-67
2022/04/06 00:16:17;;;;;;;11.85;9.18;;;;;;;;;;5076979;28;20235;-67
2022/04/06 00:18:43;;;;;;;10.48;9.38;;;;;;;;;;5077001;28;20196;-67
2022/04/06 00:21:12;;;;;;;9.07;8.15;;;;;;;;;;5076589;28;20222;-67
2022/04/06 00:23:38;;;;;;;10.02;8.02;;;;;;;;;;5076812;28;20236;-67
2022/04/06 00:26:05;;;;;;;10.68;7.03;;;;;;;;;;5076100;28;20197;-67
2022/04/06 00:28:32;;;;;;;9.10;7.28;;;;;;;;;;5076860;28;20220;-67
2022/04/06 00:30:58;;;;;;;7.63;6.75;;;;;;;;;;5076518;28;20228;-67
2022/04/06 00:33:25;;;;;;;10.07;6.63;;;;;;;;;;5076065;28;20201;-67
2022/04/06 00:35:52;;;;;;;7.32;6.53;;;;;;;;;;5076583;28;20244;-67
2022/04/06 00:38:20;;;;;;;7.43;6.63;;;;;;;;;;5076996;28;20192;-67
2022/04/06 00:40:46;;;;;;;9.13;6.95;;;;;;;;;;5074940;28;20201;-67
2022/04/06 00:43:14;;;;;;;8.90;7.07;;;;;;;;;;5075736;28;20300;-67
2022/04/06 00:45:41;;;;;;;8.98;8.07;;;;;;;;;;5076143;28;20609;-67
2022/04/06 00:48:08;;;;;;;9.93;7.53;;;;;;;;;;5075146;28;20228;-67
2022/04/06 00:50:35;;;;;;;7.07;6.38;;;;;;;;;;5076535;28;20224;-67
2022/04/06 00:53:01;;;;;;;9.02;7.53;;;;;;;;;;5075173;28;20193;-67
2022/04/06 00:55:32;;;;;;;8.23;6.95;;;;;;;;;;5076261;28;20186;-67
2022/04/06 00:57:58;;;;;;;10.20;6.57;;;;;;;;;;5075780;28;20192;-67
2022/04/06 01:00:25;;;;;;;7.43;6.68;;;;;;;;;;5076635;28;20236;-67
2022/04/06 01:02:52;;;;;;;8.52;6.65;;;;;;;;;;5076197;28;20196;-67
2022/04/06 01:05:19;;;;;;;8.32;6.80;;;;;;;;;;5075797;28;20635;-67
2022/04/06 01:07:48;;;;;;;7.22;6.40;;;;;;;;;;5075148;28;20288;-67
2022/04/06 01:10:15;;;;;;;7.60;6.22;;;;;;;;;;5074839;28;20212;-67
2022/04/06 01:12:45;;;;;;;13.15;6.97;;;;;;;;;;5074972;28;20225;-67
2022/04/06 01:15:12;;;;;;;8.32;6.82;;;;;;;;;;5074884;28;20213;-67
2022/04/06 01:17:38;;;;;;;8.18;6.80;;;;;;;;;;5074984;28;20239;-67
2022/04/06 01:20:07;;;;;;;9.43;6.80;;;;;;;;;;5075686;28;20197;-67
2022/04/06 01:22:35;;;;;;;9.45;7.00;;;;;;;;;;5075871;28;20189;-67
2022/04/06 01:25:02;;;;;;;8.88;7.13;;;;;;;;;;5074729;28;20276;-67
2022/04/06 01:27:29;;;;;;;8.07;7.25;;;;;;;;;;5074917;28;20207;-67
2022/04/06 01:29:56;;;;;;;7.80;6.95;;;;;;;;;;5074624;28;20287;-67
2022/04/06 01:32:23;;;;;;;9.85;7.35;;;;;;;;;;5074645;28;20223;-67
2022/04/06 01:34:51;;;;;;;9.55;7.32;;;;;;;;;;5075464;28;20268;-67
2022/04/06 01:37:18;;;;;;;11.10;7.68;;;;;;;;;;5074231;28;20232;-67
2022/04/06 01:39:47;;;;;;;12.73;7.30;;;;;;;;;;5074625;28;20205;-66
2022/04/06 01:42:15;;;;;;;11.35;6.97;;;;;;;;;;5075959;28;20607;-66
2022/04/06 01:44:44;;;;;;;10.13;7.60;;;;;;;;;;5074475;28;20236;-67
2022/04/06 01:47:11;;;;;;;10.45;7.53;;;;;;;;;;5074898;28;20292;-67
2022/04/06 01:52:23;;;;;;;9.63;7.32;;;;;;;;;;5074926;28;20170;-67
2022/04/06 01:54:52;;;;;;;9.98;7.55;;;;;;;;;;5074039;28;20204;-67
2022/04/06 01:57:19;;;;;;;9.63;8.48;;;;;;;;;;5075302;28;20267;-67
2022/04/06 01:59:46;;;;;;;9.73;8.13;;;;;;;;;;5074063;28;20201;-67
2022/04/06 02:02:14;;;;;;;10.30;8.25;;;;;;;;;;5074790;28;20605;-67
2022/04/06 02:04:41;;;;;;;12.55;8.70;;;;;;;;;;5074872;28;20299;-67
2022/04/06 02:07:09;;;;;;;9.68;8.00;;;;;;;;;;5075033;28;20188;-67
2022/04/06 02:09:37;;;;;;;9.00;7.78;;;;;;;;;;5074949;28;20239;-66
2022/04/06 02:12:06;;;;;;;10.95;8.55;;;;;;;;;;5075008;28;20184;-66
2022/04/06 02:14:33;;;;;;;12.30;8.25;;;;;;;;;;5075153;28;20178;-66
2022/04/06 02:17:00;;;;;;;12.55;9.23;;;;;;;;;;5074941;28;20605;-66
2022/04/06 02:19:27;;;;;;;10.10;8.38;;;;;;;;;;5074891;28;20185;-66
2022/04/06 02:21:53;;;;;;;12.23;9.35;;;;;;;;;;5075044;28;20196;-66
2022/04/06 02:24:20;;;;;;;10.32;9.25;;;;;;;;;;5074266;28;20236;-66
2022/04/06 02:26:46;;;;;;;20.42;15.05;;;;;;;;;;5074112;28;20197;-66
2022/04/06 02:29:15;;;;;;;29.75;22.35;;;;;;;;;;5074961;28;20196;-66
2022/04/06 02:31:42;;;;;;;30.48;24.05;;;;;;;;;;5074935;28;20189;-66
2022/04/06 02:34:09;;;;;;;26.35;20.70;;;;;;;;;;5074001;28;20228;-66
2022/04/06 02:36:35;;;;;;;19.75;14.32;;;;;;;;;;5073924;28;20271;-66
2022/04/06 02:39:02;;;;;;;18.73;13.73;;;;;;;;;;5074966;28;20189;-66
2022/04/06 02:41:29;;;;;;;15.90;11.93;;;;;;;;;;5074937;28;20191;-66
2022/04/06 02:43:56;;;;;;;14.35;11.70;;;;;;;;;;5073745;28;20547;-66
2022/04/06 02:46:24;;;;;;;15.55;12.43;;;;;;;;;;5074083;28;20201;-66
2022/04/06 02:48:50;;;;;;;17.27;13.82;;;;;;;;;;5074549;28;20665;-66
2022/04/06 02:51:17;;;;;;;16.27;12.70;;;;;;;;;;5074896;28;20200;-66
2022/04/06 02:53:44;;;;;;;15.98;11.55;;;;;;;;;;5074766;28;20236;-66
2022/04/06 02:56:10;;;;;;;13.95;10.98;;;;;;;;;;5074705;28;20221;-66
2022/04/06 02:58:37;;;;;;;13.23;10.82;;;;;;;;;;5074533;28;20220;-66
2022/04/06 03:01:04;;;;;;;11.82;10.10;;;;;;;;;;5074648;28;20200;-67
2022/04/06 03:03:32;;;;;;;15.68;11.50;;;;;;;;;;5072610;28;20455;-69
2022/04/06 03:05:58;;;;;;;16.23;11.40;;;;;;;;;;5075968;28;20515;-67
2022/04/06 03:08:25;;;;;;;15.48;11.18;;;;;;;;;;5078697;28;20213;-67
2022/04/06 03:10:51;;;;;;;15.00;11.25;;;;;;;;;;5077543;28;20463;-67
2022/04/06 03:13:18;;;;;;;13.90;9.43;;;;;;;;;;5078311;28;20272;-67
2022/04/06 03:15:45;;;;;;;14.50;9.27;;;;;;;;;;5077286;28;20208;-67
2022/04/06 03:18:12;;;;;;;14.98;9.68;;;;;;;;;;5078049;28;20209;-67
2022/04/06 03:20:40;;;;;;;12.18;9.18;;;;;;;;;;5077181;28;20228;-67
2022/04/06 03:23:07;;;;;;;16.33;9.43;;;;;;;;;;5077468;28;20229;-67
2022/04/06 03:25:33;;;;;;;17.17;10.25;;;;;;;;;;5078121;28;20225;-67
2022/04/06 03:28:00;;;;;;;14.02;9.63;;;;;;;;;;5077029;28;20228;-67
2022/04/06 03:30:26;;;;;;;14.52;9.75;;;;;;;;;;5077013;28;20200;-67
2022/04/06 03:32:53;;;;;;;15.32;10.63;;;;;;;;;;5077923;28;20197;-67
2022/04/06 03:35:20;;;;;;;15.10;10.95;;;;;;;;;;5077394;28;20264;-67
2022/04/06 03:37:48;;;;;;;16.20;10.88;;;;;;;;;;5077477;28;20517;-67
2022/04/06 03:40:14;;;;;;;17.75;11.02;;;;;;;;;;5077442;28;20235;-67
2022/04/06 03:42:41;;;;;;;17.65;11.52;;;;;;;;;;5077416;28;20181;-67
2022/04/06 03:45:08;;;;;;;15.40;10.85;;;;;;;;;;5076713;28;20216;-67
2022/04/06 03:47:35;;;;;;;14.25;10.93;;;;;;;;;;5076681;28;20197;-67
2022/04/06 03:50:03;;;;;;;17.48;12.90;;;;;;;;;;5077552;28;20707;-67
2022/04/06 03:52:29;;;;;;;19.20;12.70;;;;;;;;;;5077276;28;20216;-67
2022/04/06 03:54:57;;;;;;;17.88;13.40;;;;;;;;;;5076311;28;20197;-67
2022/04/06 03:57:25;;;;;;;17.38;11.77;;;;;;;;;;5076755;28;20228;-67
2022/04/06 03:59:51;;;;;;;15.20;11.70;;;;;;;;;;5076150;28;20223;-67
2022/04/06 04:02:18;;;;;;;19.45;11.63;;;;;;;;;;5077232;28;20497;-67
2022/04/06 04:04:45;;;;;;;16.00;11.13;;;;;;;;;;5076014;28;20312;-67
2022/04/06 04:07:11;;;;;;;18.05;12.43;;;;;;;;;;5077411;28;20264;-67
2022/04/06 04:09:38;;;;;;;19.08;14.40;;;;;;;;;;5076644;28;20561;-67
2022/04/06 04:12:06;;;;;;;20.27;14.45;;;;;;;;;;5077436;28;20292;-67
2022/04/06 04:14:34;;;;;;;24.33;15.18;;;;;;;;;;5076691;28;20196;-67
2022/04/06 04:17:01;;;;;;;20.05;14.30;;;;;;;;;;5076346;28;20197;-67
2022/04/06 04:19:27;;;;;;;17.35;12.18;;;;;;;;;;5076739;28;20220;-68
2022/04/06 04:21:54;;;;;;;15.68;10.70;;;;;;;;;;5076894;28;20199;-68
2022/04/06 04:24:21;;;;;;;20.83;14.00;;;;;;;;;;5076175;28;20521;-67
2022/04/06 04:26:48;;;;;;;34.20;16.13;;;;;;;;;;5076771;28;20595;-67
2022/04/06 04:29:17;;;;;;;27.52;14.45;;;;;;;;;;5075968;28;20201;-67
2022/04/06 04:31:44;;;;;;;17.63;14.13;;;;;;;;;;5075624;28;20228;-68
2022/04/06 04:34:11;;;;;;;17.52;11.50;;;;;;;;;;5076987;28;20204;-67
2022/04/06 04:36:37;;;;;;;15.07;10.65;;;;;;;;;;5076478;28;20236;-67
2022/04/06 04:39:05;;;;;;;15.45;11.82;;;;;;;;;;5076076;28;20232;-67
2022/04/06 04:41:31;;;;;;;14.82;11.38;;;;;;;;;;5076355;28;20185;-67
2022/04/06 04:43:58;;;;;;;14.75;12.15;;;;;;;;;;5076022;28;20276;-67
2022/04/06 04:46:26;;;;;;;18.95;12.05;;;;;;;;;;5076607;28;20273;-67
2022/04/06 04:48:53;;;;;;;20.13;13.00;;;;;;;;;;5074905;28;20526;-67
2022/04/06 04:51:19;;;;;;;19.63;14.07;;;;;;;;;;5075483;28;20618;-67
2022/04/06 04:53:46;;;;;;;18.20;13.68;;;;;;;;;;5075929;28;20181;-66
2022/04/06 04:56:12;;;;;;;23.70;13.60;;;;;;;;;;5076317;28;20182;-67
2022/04/06 04:58:39;;;;;;;19.48;12.50;;;;;;;;;;5076610;28;20228;-67
2022/04/06 05:01:07;;;;;;;20.88;11.68;;;;;;;;;;5075249;28;20228;-67
2022/04/06 05:03:35;;;;;;;19.10;12.20;;;;;;;;;;5076325;28;20598;-67
2022/04/06 05:06:02;;;;;;;15.93;10.98;;;;;;;;;;5075256;28;20308;-67
2022/04/06 05:08:29;;;;;;;17.70;11.30;;;;;;;;;;5075963;28;20221;-67
2022/04/06 05:10:55;;;;;;;16.83;11.90;;;;;;;;;;5075578;28;20585;-67
2022/04/06 05:13:22;;;;;;;14.90;11.68;;;;;;;;;;5076021;28;20200;-68
2022/04/06 05:15:48;;;;;;;14.82;11.23;;;;;;;;;;5075764;28;20581;-68
2022/04/06 05:18:15;;;;;;;15.43;11.80;;;;;;;;;;5075882;28;20231;-68
2022/04/06 05:20:43;;;;;;;15.73;11.20;;;;;;;;;;5074680;28;20207;-68
2022/04/06 05:23:10;;;;;;;14.90;11.05;;;;;;;;;;5075949;28;20186;-67
2022/04/06 05:25:36;;;;;;;17.48;11.25;;;;;;;;;;5075392;28;20716;-67
2022/04/06 05:28:03;;;;;;;16.90;11.75;;;;;;;;;;5074828;28;20225;-67
2022/04/06 05:30:32;;;;;;;19.60;11.15;;;;;;;;;;5075420;28;20220;-67
2022/04/06 05:32:59;;;;;;;16.02;11.02;;;;;;;;;;5075352;28;20288;-67
2022/04/06 05:35:26;;;;;;;13.15;11.50;;;;;;;;;;5074590;28;20197;-68
2022/04/06 05:37:55;;;;;;;20.27;14.68;;;;;;;;;;5074641;28;20205;-68
2022/04/06 05:40:22;;;;;;;20.40;15.02;;;;;;;;;;5075341;28;20191;-68
2022/04/06 05:42:48;;;;;;;19.42;15.35;;;;;;;;;;5075609;28;20266;-65
2022/04/06 05:45:15;;;;;;;17.27;14.40;;;;;;;;;;5074841;28;20274;-65
2022/04/06 05:47:42;;;;;;;17.75;14.32;;;;;;;;;;5074482;28;20287;-65
2022/04/06 05:50:10;;;;;;;18.10;14.45;;;;;;;;;;5074647;28;20211;-65
2022/04/06 05:52:36;;;;;;;18.35;14.60;;;;;;;;;;5074392;28;20192;-65
2022/04/06 05:55:05;;;;;;;16.88;15.18;;;;;;;;;;5075376;28;20227;-65
2022/04/06 05:57:31;;;;;;;18.30;15.35;;;;;;;;;;5075710;28;20208;-65
2022/04/06 05:59:58;;;;;;;16.55;14.80;;;;;;;;;;5075381;28;20195;-65
2022/04/06 06:02:25;;;;;;;21.30;15.48;;;;;;;;;;5075312;28;20232;-65
2022/04/06 06:04:51;;;;;;;24.05;21.67;;;;;;;;;;5075234;28;20648;-66
2022/04/06 06:07:19;;;;;;;40.40;36.65;;;;;;;;;;5075386;28;20186;-66
2022/04/06 06:09:46;;;;;;;39.85;36.10;;;;;;;;;;5075277;28;20193;-65
2022/04/06 06:12:14;;;;;;;46.95;42.45;;;;;;;;;;5075058;28;20272;-65
2022/04/06 06:14:41;;;;;;;45.25;41.28;;;;;;;;;;5075066;28;20182;-65
2022/04/06 06:17:07;;;;;;;31.85;28.52;;;;;;;;;;5075057;28;20657;-65
2022/04/06 06:19:34;;;;;;;20.45;17.83;;;;;;;;;;5074891;28;20204;-65
2022/04/06 06:22:00;;;;;;;18.02;13.05;;;;;;;;;;5075128;28;20193;-65
2022/04/06 06:24:27;;;;;;;19.02;14.68;;;;;;;;;;5075484;28;20196;-65
2022/04/06 06:26:54;;;;;;;18.30;15.00;;;;;;;;;;5074798;28;20207;-65
2022/04/06 06:29:22;;;;;;;18.10;15.70;;;;;;;;;;5074543;28;20250;-66
2022/04/06 06:31:49;;;;;;;17.60;15.75;;;;;;;;;;5074270;28;20201;-66
2022/04/06 06:34:16;;;;;;;15.43;13.82;;;;;;;;;;5074825;28;20217;-65
2022/04/06 06:36:42;;;;;;;12.63;11.32;;;;;;;;;;5073689;28;20303;-65
2022/04/06 06:39:09;;;;;;;11.25;9.95;;;;;;;;;;5075667;28;20254;-65
2022/04/06 06:41:36;;;;;;;10.70;8.73;;;;;;;;;;5077760;28;20205;-65
2022/04/06 06:44:03;;;;;;;9.30;8.35;;;;;;;;;;5078964;28;20220;-65
2022/04/06 06:46:31;;;;;;;13.13;9.40;;;;;;;;;;5078754;28;20231;-65
2022/04/06 06:49:02;;;;;;;10.77;9.02;;;;;;;;;;5078559;28;20193;-66
2022/04/06 06:51:30;;;;;;;10.82;9.30;;;;;;;;;;5078051;28;20197;-67
2022/04/06 06:53:56;;;;;;;12.55;10.80;;;;;;;;;;5078046;28;20197;-66
2022/04/06 06:56:23;;;;;;;12.57;10.30;;;;;;;;;;5078372;28;20203;-66
2022/04/06 06:58:50;;;;;;;11.02;9.75;;;;;;;;;;5078860;28;20197;-65
2022/04/06 07:01:16;;;;;;;11.32;9.70;;;;;;;;;;5077679;28;20228;-65
2022/04/06 07:03:44;;;;;;;13.52;11.15;;;;;;;;;;5077293;28;20470;-70
2022/04/06 07:06:11;;;;;;;15.30;11.95;;;;;;;;;;5078462;28;20213;-68
2022/04/06 07:08:38;;;;;;;12.98;11.70;;;;;;;;;;5077056;28;20541;-67
2022/04/06 07:11:04;;;;;;;13.30;11.10;;;;;;;;;;5077596;28;20215;-67
2022/04/06 07:13:31;;;;;;;14.38;11.32;;;;;;;;;;5078106;28;20189;-67
2022/04/06 07:15:58;;;;;;;14.98;10.55;;;;;;;;;;5077845;28;20189;-67
2022/04/06 07:18:24;;;;;;;14.43;11.02;;;;;;;;;;5077235;28;20232;-67
2022/04/06 07:20:52;;;;;;;14.27;11.25;;;;;;;;;;5077360;28;20326;-67
2022/04/06 07:23:19;;;;;;;13.90;11.73;;;;;;;;;;5078138;28;20220;-66
2022/04/06 07:25:45;;;;;;;13.63;11.32;;;;;;;;;;5077149;28;20252;-66
2022/04/06 07:28:12;;;;;;;14.57;11.93;;;;;;;;;;5078316;28;20209;-72
2022/04/06 07:30:39;;;;;;;11.68;10.55;;;;;;;;;;5077151;28;20201;-67
2022/04/06 07:33:05;;;;;;;17.00;11.68;;;;;;;;;;5077160;28;20201;-66
2022/04/06 07:35:35;;;;;;;14.35;11.88;;;;;;;;;;5077759;28;20233;-66
2022/04/06 07:38:03;;;;;;;13.40;12.02;;;;;;;;;;5076891;28;20211;-66
2022/04/06 07:40:29;;;;;;;13.10;10.73;;;;;;;;;;5076605;28;20201;-66
2022/04/06 07:42:56;;;;;;;11.95;10.27;;;;;;;;;;5077556;28;20572;-66
2022/04/06 07:45:24;;;;;;;12.90;10.43;;;;;;;;;;5077583;28;20241;-66
2022/04/06 07:47:51;;;;;;;13.70;10.57;;;;;;;;;;5077465;28;20188;-66
2022/04/06 07:50:18;;;;;;;13.80;11.20;;;;;;;;;;5077081;28;20200;-66
2022/04/06 07:52:45;;;;;;;12.95;10.60;;;;;;;;;;5077030;28;20189;-66
2022/04/06 07:55:14;;;;;;;12.57;11.38;;;;;;;;;;5076779;28;20200;-66
2022/04/06 07:57:41;;;;;;;12.35;11.02;;;;;;;;;;5076519;28;20227;-66
2022/04/06 08:00:09;;;;;;;12.45;11.15;;;;;;;;;;5077402;28;20193;-66
2022/04/06 08:02:35;;;;;;;13.40;10.60;;;;;;;;;;5076444;28;20205;-66
2022/04/06 08:05:02;;;;;;;12.05;10.85;;;;;;;;;;5076324;28;20207;-66
2022/04/06 08:07:29;;;;;;;14.93;10.77;;;;;;;;;;5076600;28;20220;-67
2022/04/06 08:09:55;;;;;;;13.07;10.52;;;;;;;;;;5077378;28;20199;-66
2022/04/06 08:12:24;;;;;;;12.55;10.98;;;;;;;;;;5076927;28;20256;-66
2022/04/06 08:14:50;;;;;;;12.80;11.15;;;;;;;;;;5077385;28;20283;-66
2022/04/06 08:17:17;;;;;;;13.07;11.70;;;;;;;;;;5076234;28;20553;-66
2022/04/06 08:19:44;;;;;;;12.98;11.57;;;;;;;;;;5076478;28;20185;-65
2022/04/06 08:22:10;;;;;;;14.02;11.68;;;;;;;;;;5076382;28;20207;-65
2022/04/06 08:24:37;;;;;;;14.23;11.60;;;;;;;;;;5077313;28;20181;-65
2022/04/06 08:27:04;;;;;;;16.90;12.43;;;;;;;;;;5076330;28;20663;-66
2022/04/06 08:29:34;;;;;;;14.02;11.45;;;;;;;;;;5076431;28;20204;-65
2022/04/06 08:32:00;;;;;;;13.35;11.57;;;;;;;;;;5076977;28;20189;-65
2022/04/06 08:34:28;;;;;;;15.18;11.25;;;;;;;;;;5076828;28;20192;-65
2022/04/06 08:36:54;;;;;;;14.55;10.65;;;;;;;;;;5075889;28;20290;-66
2022/04/06 08:39:21;;;;;;;14.02;10.77;;;;;;;;;;5076541;28;20280;-66
2022/04/06 08:41:48;;;;;;;13.70;10.60;;;;;;;;;;5076678;28;20192;-66
2022/04/06 08:44:25;;;;;;;13.20;11.20;;;;;;;;;;5076664;28;20245;-66
2022/04/06 08:46:54;;;;;;;13.45;11.18;;;;;;;;;;5076237;28;20235;-66
2022/04/06 08:49:22;;;;;;;13.00;10.32;;;;;;;;;;5076726;28;20201;-66
2022/04/06 08:51:49;;;;;;;14.48;13.05;;;;;;;;;;5076688;28;20189;-66
2022/04/06 08:54:15;;;;;;;14.70;11.90;;;;;;;;;;5076440;28;20189;-66
2022/04/06 08:56:42;;;;;;;15.23;11.35;;;;;;;;;;5076099;28;20193;-66
2022/04/06 08:59:08;;;;;;;13.95;12.07;;;;;;;;;;5076905;28;20523;-66
2022/04/06 09:01:35;;;;;;;13.45;10.70;;;;;;;;;;5076331;28;20181;-66
2022/04/06 09:04:03;;;;;;;12.38;10.80;;;;;;;;;;5075829;28;20192;-66
2022/04/06 09:06:32;;;;;;;16.88;10.60;;;;;;;;;;5075853;28;20527;-66
2022/04/06 09:08:58;;;;;;;10.35;9.32;;;;;;;;;;5075372;28;20201;-66
2022/04/06 09:11:26;;;;;;;12.90;10.48;;;;;;;;;;5075817;28;20201;-66
2022/04/06 09:13:58;;;;;;;13.93;10.00;;;;;;;;;;5076292;28;20185;-66
2022/04/06 09:16:27;;;;;;;14.48;11.70;;;;;;;;;;5076119;28;20250;-66
2022/04/06 09:18:54;;;;;;;12.80;10.38;;;;;;;;;;5074862;28;20189;-66
2022/04/06 09:21:22;;;;;;;15.88;9.77;;;;;;;;;;5074976;28;20215;-66
2022/04/06 09:23:49;;;;;;;12.25;10.27;;;;;;;;;;5075630;28;20185;-66
2022/04/06 09:26:19;;;;;;;11.23;10.10;;;;;;;;;;5075866;28;20280;-66
2022/04/06 09:28:46;;;;;;;12.48;9.38;;;;;;;;;;5075187;28;20197;-66
2022/04/06 09:31:15;;;;;;;9.82;7.57;;;;;;;;;;5075621;28;20259;-66
2022/04/06 09:33:43;;;;;;;8.55;7.57;;;;;;;;;;5074876;28;20200;-66
2022/04/06 09:36:18;;;;;;;11.30;7.03;;;;;;;;;;5075778;28;20244;-66
2022/04/06 09:38:47;;;;;;;10.70;6.47;;;;;;;;;;5075725;28;20181;-66
2022/04/06 09:41:15;;;;;;;10.35;6.85;;;;;;;;;;5075807;28;20189;-66
2022/04/06 09:43:44;;;;;;;8.13;6.20;;;;;;;;;;5075545;28;20217;-65
2022/04/06 09:49:02;;;;;;;6.83;5.33;;;;;;;;;;5074319;28;20439;-66
2022/04/06 09:51:29;;;;;;;5.82;4.80;;;;;;;;;;5075301;28;20620;-66
2022/04/06 09:53:57;;;;;;;11.90;4.57;;;;;;;;;;5075374;28;20258;-66
2022/04/06 09:56:24;;;;;;;3.85;3.17;;;;;;;;;;5076074;28;20197;-66
2022/04/06 09:58:51;;;;;;;3.83;3.08;;;;;;;;;;5074665;28;20215;-67
2022/04/06 10:01:17;;;;;;;4.28;3.35;;;;;;;;;;5075421;28;20288;-66
2022/04/06 10:03:47;;;;;;;7.45;4.50;;;;;;;;;;5075408;28;20196;-66
2022/04/06 10:06:14;;;;;;;4.28;3.65;;;;;;;;;;5074745;28;20220;-66
2022/04/06 10:08:41;;;;;;;4.72;3.75;;;;;;;;;;5075996;28;20193;-66
2022/04/06 10:11:09;;;;;;;3.63;3.25;;;;;;;;;;5076046;28;20196;-66
2022/04/06 10:13:36;;;;;;;4.85;3.90;;;;;;;;;;5075319;28;20185;-66
2022/04/06 10:16:02;;;;;;;5.70;3.60;;;;;;;;;;5073671;28;20863;-68
2022/04/06 10:18:31;;;;;;;5.00;3.88;;;;;;;;;;5075408;28;20189;-65
2022/04/06 10:21:00;;;;;;;5.75;4.18;;;;;;;;;;5075307;28;20205;-66
2022/04/06 10:23:33;;;;;;;4.00;3.03;;;;;;;;;;5075249;28;20196;-65
2022/04/06 10:26:01;;;;;;;4.22;3.72;;;;;;;;;;5074081;28;20213;-65
2022/04/06 10:28:32;;;;;;;4.65;3.80;;;;;;;;;;5075132;28;20186;-65
2022/04/06 10:31:14;;;;;;;6.20;3.65;;;;;;;;;;5074602;28;20193;-65
2022/04/06 10:33:41;;;;;;;5.63;3.97;;;;;;;;;;5075180;28;20439;-67
2022/04/06 10:36:28;;;;;;;6.20;3.85;;;;;;;;;;5074033;28;20340;-66
2022/04/06 10:39:13;;;;;;;6.18;4.15;;;;;;;;;;5074827;28;20201;-66
2022/04/06 10:41:41;;;;;;;4.78;3.60;;;;;;;;;;5075125;28;20185;-66
2022/04/06 10:44:30;;;;;;;5.72;4.00;;;;;;;;;;5075004;28;20185;-66
2022/04/06 10:47:06;;;;;;;7.95;4.10;;;;;;;;;;5073674;28;20221;-66
2022/04/06 10:49:32;;;;;;;4.60;3.90;;;;;;;;;;5075111;28;20181;-66
2022/04/06 10:52:00;;;;;;;4.03;3.72;;;;;;;;;;5074936;28;20185;-66
2022/04/06 10:54:39;;;;;;;6.65;4.65;;;;;;;;;;5074881;28;20200;-66
2022/04/06 10:57:06;;;;;;;6.75;4.30;;;;;;;;;;5074951;28;20192;-66
2022/04/06 10:59:34;;;;;;;6.47;4.00;;;;;;;;;;5074997;28;20188;-66
2022/04/06 11:02:17;;;;;;;7.57;4.63;;;;;;;;;;5074013;28;20582;-66
2022/04/06 11:04:44;;;;;;;5.80;4.38;;;;;;;;;;5074529;28;20185;-66
2022/04/06 11:07:11;;;;;;;7.03;4.22;;;;;;;;;;5074468;28;20201;-66
2022/04/06 11:12:28;;;;;;;5.25;4.20;;;;;;;;;;5064456;28;20299;-67
2022/04/06 11:15:09;;;;;;;11.55;4.78;;;;;;;;;;5074930;28;20192;-66
2022/04/06 11:17:42;;;;;;;6.13;4.32;;;;;;;;;;5074273;28;20521;-66
2022/04/06 11:20:10;;;;;;;5.35;4.10;;;;;;;;;;5074009;28;20435;-65
2022/04/06 11:22:38;;;;;;;5.70;4.25;;;;;;;;;;5073898;28;20197;-65
2022/04/06 11:25:07;;;;;;;4.72;4.20;;;;;;;;;;5074854;28;20671;-65
2022/04/06 11:27:35;;;;;;;4.32;3.92;;;;;;;;;;5078273;28;20538;-65
2022/04/06 11:30:02;;;;;;;5.60;4.20;;;;;;;;;;5078136;28;20260;-66
2022/04/06 11:32:29;;;;;;;4.70;4.30;;;;;;;;;;5078251;28;20199;-66
2022/04/06 11:35:01;;;;;;;4.50;4.10;;;;;;;;;;5078674;28;20196;-66
2022/04/06 11:37:28;;;;;;;5.18;4.20;;;;;;;;;;5077811;28;20237;-66
2022/04/06 11:40:00;;;;;;;5.55;4.25;;;;;;;;;;5078191;28;20200;-68
2022/04/06 11:42:27;;;;;;;6.38;4.07;;;;;;;;;;5077886;28;20280;-68
2022/04/06 11:44:54;;;;;;;8.07;4.43;;;;;;;;;;5077972;28;20220;-67
2022/04/06 11:47:27;;;;;;;5.63;4.20;;;;;;;;;;5077611;28;20205;-70
2022/04/06 11:49:54;;;;;;;4.60;3.90;;;;;;;;;;5076534;28;20205;-65
2022/04/06 11:52:22;;;;;;;4.78;4.20;;;;;;;;;;5077779;28;20228;-65
2022/04/06 11:54:53;;;;;;;7.30;4.10;;;;;;;;;;5077706;28;20605;-65
2022/04/06 11:57:19;;;;;;;5.65;3.75;;;;;;;;;;5077496;28;20497;-65
2022/04/06 11:59:53;;;;;;;6.00;4.40;;;;;;;;;;5076778;28;20550;-65
2022/04/06 12:02:20;;;;;;;5.78;4.55;;;;;;;;;;5077316;28;20196;-65
2022/04/06 12:04:48;;;;;;;4.40;4.00;;;;;;;;;;5077628;28;20189;-65
2022/04/06 12:07:25;;;;;;;5.47;4.00;;;;;;;;;;5076674;28;20446;-66
2022/04/06 12:09:52;;;;;;;6.88;3.90;;;;;;;;;;5076013;28;20432;-64
2022/04/06 12:12:18;;;;;;;5.70;4.40;;;;;;;;;;5075460;28;20429;-65
2022/04/06 12:14:45;;;;;;;5.22;4.03;;;;;;;;;;5077950;28;20189;-65
2022/04/06 12:17:13;;;;;;;5.35;4.22;;;;;;;;;;5076207;28;20228;-65
2022/04/06 12:19:40;;;;;;;5.50;4.05;;;;;;;;;;5076265;28;20193;-65
2022/04/06 12:22:07;;;;;;;5.10;3.60;;;;;;;;;;5077315;28;20219;-65
2022/04/06 12:24:39;;;;;;;4.57;4.15;;;;;;;;;;5076406;28;20190;-65
2022/04/06 12:27:06;;;;;;;5.70;3.78;;;;;;;;;;5076072;28;20308;-65
2022/04/06 12:29:35;;;;;;;5.95;4.20;;;;;;;;;;5077150;28;20220;-65
2022/04/06 12:32:02;;;;;;;5.15;4.25;;;;;;;;;;5076987;28;20192;-65
2022/04/06 12:34:32;;;;;;;5.28;3.65;;;;;;;;;;5076440;28;20519;-64
2022/04/06 12:37:00;;;;;;;5.07;3.97;;;;;;;;;;5076200;28;20236;-65
2022/04/06 12:39:26;;;;;;;5.78;4.70;;;;;;;;;;5075931;28;20203;-65
2022/04/06 12:41:59;;;;;;;7.72;4.07;;;;;;;;;;5075828;28;20221;-65
2022/04/06 12:44:26;;;;;;;5.78;3.90;;;;;;;;;;5076192;28;20194;-66
2022/04/06 12:46:53;;;;;;;7.40;4.05;;;;;;;;;;5077188;28;20209;-65
2022/04/06 12:49:25;;;;;;;4.95;3.85;;;;;;;;;;5076078;28;20208;-65
2022/04/06 12:52:18;;;;;;;5.55;4.20;;;;;;;;;;5076641;28;20197;-65
2022/04/06 12:54:46;;;;;;;5.03;3.63;;;;;;;;;;5040634;28;20217;-65
2022/04/06 12:57:16;;;;;;;4.65;3.08;;;;;;;;;;5076851;28;20225;-65
2022/04/06 12:59:44;;;;;;;4.28;3.40;;;;;;;;;;5075530;28;20291;-65
2022/04/06 13:02:27;;;;;;;3.97;3.53;;;;;;;;;;5076279;28;20203;-66
2022/04/06 13:04:54;;;;;;;5.85;3.90;;;;;;;;;;5076110;28;20181;-66
2022/04/06 13:07:21;;;;;;;4.93;3.97;;;;;;;;;;5075454;28;20217;-66
2022/04/06 13:09:52;;;;;;;5.97;3.47;;;;;;;;;;5076191;28;20185;-66
2022/04/06 13:12:22;;;;;;;4.88;3.75;;;;;;;;;;5076266;28;20204;-65
2022/04/06 13:14:49;;;;;;;5.10;3.75;;;;;;;;;;5075378;28;20451;-66
2022/04/06 13:17:16;;;;;;;4.55;3.60;;;;;;;;;;5074925;28;20189;-66
2022/04/06 13:19:42;;;;;;;7.22;3.72;;;;;;;;;;5075262;28;20291;-66
2022/04/06 13:22:09;;;;;;;3.95;3.30;;;;;;;;;;5075237;28;20197;-66
2022/04/06 13:24:36;;;;;;;4.05;3.63;;;;;;;;;;5075678;28;20606;-66
2022/04/06 13:27:03;;;;;;;3.28;2.90;;;;;;;;;;5075490;28;20505;-66
2022/04/06 13:29:31;;;;;;;4.55;3.45;;;;;;;;;;5075889;28;20188;-66
2022/04/06 13:31:58;;;;;;;4.97;3.40;;;;;;;;;;5075435;28;20463;-65
2022/04/06 13:34:25;;;;;;;4.53;2.97;;;;;;;;;;5075694;28;20605;-65
2022/04/06 13:36:52;;;;;;;4.82;3.40;;;;;;;;;;5074583;28;20279;-66
2022/04/06 13:39:19;;;;;;;3.83;3.17;;;;;;;;;;5075581;28;20239;-65
2022/04/06 13:41:48;;;;;;;4.10;3.00;;;;;;;;;;5075641;28;20220;-65
2022/04/06 13:44:16;;;;;;;4.68;3.20;;;;;;;;;;5075130;28;20193;-66
2022/04/06 13:46:44;;;;;;;7.00;3.33;;;;;;;;;;5075156;28;20296;-65
2022/04/06 13:49:12;;;;;;;4.07;2.90;;;;;;;;;;5075025;28;20236;-65
2022/04/06 13:51:38;;;;;;;4.85;3.85;;;;;;;;;;5073744;28;20446;-65
2022/04/06 13:54:05;;;;;;;4.43;3.25;;;;;;;;;;5074488;28;20468;-65
2022/04/06 13:56:31;;;;;;;4.40;3.53;;;;;;;;;;5074796;28;20243;-65
2022/04/06 13:58:58;;;;;;;3.83;2.80;;;;;;;;;;5075762;28;20201;-65
2022/04/06 14:01:25;;;;;;;7.20;3.40;;;;;;;;;;5075729;28;20196;-65
2022/04/06 14:03:53;;;;;;;4.13;3.20;;;;;;;;;;5075358;28;20217;-65
2022/04/06 14:06:19;;;;;;;3.58;3.28;;;;;;;;;;5074580;28;20228;-65
2022/04/06 14:08:46;;;;;;;4.75;2.95;;;;;;;;;;5074896;28;20244;-65
2022/04/06 14:11:14;;;;;;;4.57;3.65;;;;;;;;;;5075550;28;20181;-65
2022/04/06 14:13:40;;;;;;;4.72;3.28;;;;;;;;;;5074508;28;20225;-65
2022/04/06 14:16:08;;;;;;;5.55;3.67;;;;;;;;;;5074890;28;20463;-65
2022/04/06 14:18:35;;;;;;;4.32;3.60;;;;;;;;;;5075193;28;20217;-65
2022/04/06 14:21:03;;;;;;;6.22;3.65;;;;;;;;;;5074401;28;20239;-65
2022/04/06 14:23:30;;;;;;;4.22;2.97;;;;;;;;;;5075232;28;20203;-65
2022/04/06 14:25:56;;;;;;;4.15;3.40;;;;;;;;;;5074995;28;20204;-65
2022/04/06 14:28:23;;;;;;;4.95;3.58;;;;;;;;;;5074663;28;20251;-65
2022/04/06 14:30:50;;;;;;;5.43;3.60;;;;;;;;;;5074172;28;20323;-65
2022/04/06 14:33:17;;;;;;;7.30;3.53;;;;;;;;;;5075358;28;20231;-65
2022/04/06 14:35:44;;;;;;;5.18;3.38;;;;;;;;;;5074717;28;20331;-65
2022/04/06 14:38:12;;;;;;;3.97;3.58;;;;;;;;;;5074180;28;20636;-66
2022/04/06 14:40:39;;;;;;;7.18;3.45;;;;;;;;;;5074985;28;20228;-65
2022/04/06 14:43:06;;;;;;;5.13;3.40;;;;;;;;;;5074096;28;20584;-65